createdAt,value
2016-05-05T00:00:47.039Z,1029.78
2016-05-05T00:01:27.854Z,1029.81
2016-05-05T00:02:27.873Z,1029.78
2016-05-05T00:03:27.875Z,1029.77
2016-05-05T00:05:37.521Z,1029.78
2016-05-05T00:06:37.524Z,1029.73
2016-05-05T00:07:53.433Z,1029.7
2016-05-05T00:08:40.716Z,1029.72
2016-05-05T00:09:59.941Z,1029.71
2016-05-05T00:10:40.769Z,1029.69
2016-05-05T00:11:40.819Z,1029.66
2016-05-05T00:12:53.524Z,1029.66
2016-05-05T00:13:40.855Z,1029.69
2016-05-05T00:14:40.811Z,1029.66
2016-05-05T00:15:40.829Z,1029.68
2016-05-05T00:16:40.847Z,1029.65
2016-05-05T00:17:47.115Z,1029.71
2016-05-05T00:18:40.869Z,1029.62
2016-05-05T00:20:00.187Z,1029.61
2016-05-05T00:20:44.155Z,1029.62
2016-05-05T00:21:44.174Z,1029.58
2016-05-05T00:22:44.192Z,1029.6
2016-05-05T00:23:56.945Z,1029.58
2016-05-05T00:24:56.948Z,1029.6
2016-05-05T00:25:44.231Z,1029.58
2016-05-05T00:26:44.249Z,1029.6
2016-05-05T00:27:44.268Z,1029.6
2016-05-05T00:28:44.286Z,1029.62
2016-05-05T00:29:57.023Z,1029.59
2016-05-05T00:30:44.306Z,1029.59
2016-05-05T00:31:44.435Z,1029.57
2016-05-05T00:32:44.328Z,1029.57
2016-05-05T00:33:44.361Z,1029.55
2016-05-05T00:34:44.365Z,1029.57
2016-05-05T00:35:44.383Z,1029.57
2016-05-05T00:36:44.401Z,1029.58
2016-05-05T00:37:44.420Z,1029.57
2016-05-05T00:38:44.422Z,1029.59
2016-05-05T00:39:44.456Z,1029.54
2016-05-05T00:40:44.458Z,1029.52
2016-05-05T00:41:44.477Z,1029.52
2016-05-05T00:42:44.496Z,1029.5
2016-05-05T00:43:44.499Z,1029.53
2016-05-05T00:44:44.516Z,1029.55
2016-05-05T00:45:45.144Z,1029.55
2016-05-05T00:46:44.584Z,1029.52
2016-05-05T00:47:44.556Z,1029.53
2016-05-05T00:48:44.574Z,1029.56
2016-05-05T00:49:44.593Z,1029.56
2016-05-05T00:50:50.876Z,1029.57
2016-05-05T00:51:44.614Z,1029.56
2016-05-05T00:52:44.632Z,1029.55
2016-05-05T00:53:44.651Z,1029.56
2016-05-05T00:54:44.668Z,1029.54
2016-05-05T00:55:57.406Z,1029.55
2016-05-05T00:56:44.705Z,1029.53
2016-05-05T00:57:44.708Z,1029.54
2016-05-05T00:58:44.727Z,1029.56
2016-05-05T00:59:44.745Z,1029.51
2016-05-05T01:00:57.497Z,1029.56
2016-05-05T01:01:44.797Z,1029.54
2016-05-05T01:02:44.784Z,1029.53
2016-05-05T01:03:44.786Z,1029.52
2016-05-05T01:04:44.805Z,1029.52
2016-05-05T01:05:57.558Z,1029.55
2016-05-05T01:06:44.842Z,1029.58
2016-05-05T01:08:04.066Z,1029.6
2016-05-05T01:08:44.878Z,1029.6
2016-05-05T01:09:44.880Z,1029.59
2016-05-05T01:10:45.102Z,1029.65
2016-05-05T01:11:44.917Z,1029.62
2016-05-05T01:12:57.685Z,1029.64
2016-05-05T01:13:44.938Z,1029.66
2016-05-05T01:14:44.972Z,1029.7
2016-05-05T01:15:44.975Z,1029.69
2016-05-05T01:16:44.994Z,1029.7
2016-05-05T01:17:57.746Z,1029.71
2016-05-05T01:18:45.030Z,1029.74
2016-05-05T01:19:45.032Z,1029.75
2016-05-05T01:20:57.785Z,1029.74
2016-05-05T01:21:57.804Z,1029.72
2016-05-05T01:22:45.072Z,1029.74
2016-05-05T01:23:45.090Z,1029.75
2016-05-05T01:25:45.127Z,1029.73
2016-05-05T01:26:45.130Z,1029.68
2016-05-05T01:27:45.148Z,1029.69
2016-05-05T01:28:51.432Z,1029.7
2016-05-05T01:29:45.184Z,1029.68
2016-05-05T01:30:45.203Z,1029.66
2016-05-05T01:31:51.503Z,1029.65
2016-05-05T01:33:04.429Z,1029.61
2016-05-05T01:33:45.242Z,1029.6
2016-05-05T01:35:10.951Z,1029.61
2016-05-05T01:35:45.264Z,1029.59
2016-05-05T01:36:45.282Z,1029.59
2016-05-05T01:37:45.300Z,1029.61
2016-05-05T01:38:45.303Z,1029.62
2016-05-05T01:39:45.320Z,1029.54
2016-05-05T01:40:45.339Z,1029.61
2016-05-05T01:41:45.358Z,1029.6
2016-05-05T01:42:58.111Z,1029.64
2016-05-05T01:43:45.378Z,1029.62
2016-05-05T01:44:45.397Z,1029.59
2016-05-05T01:45:45.416Z,1029.64
2016-05-05T01:46:45.433Z,1029.65
2016-05-05T01:47:45.451Z,1029.65
2016-05-05T01:48:46.063Z,1029.67
2016-05-05T01:49:45.472Z,1029.6
2016-05-05T01:50:45.491Z,1029.61
2016-05-05T01:51:45.494Z,1029.6
2016-05-05T01:52:45.533Z,1029.6
2016-05-05T01:53:45.578Z,1029.59
2016-05-05T01:54:45.639Z,1029.6
2016-05-05T01:55:45.716Z,1029.59
2016-05-05T01:56:45.761Z,1029.6
2016-05-05T01:57:45.808Z,1029.62
2016-05-05T01:58:45.842Z,1029.56
2016-05-05T02:00:11.550Z,1029.6
2016-05-05T02:00:45.893Z,1029.61
2016-05-05T02:01:45.928Z,1029.59
2016-05-05T02:02:45.957Z,1029.58
2016-05-05T02:03:45.981Z,1029.6
2016-05-05T02:04:45.988Z,1029.61
2016-05-05T02:05:58.748Z,1029.62
2016-05-05T02:06:46.038Z,1029.61
2016-05-05T02:07:46.044Z,1029.64
2016-05-05T02:08:46.064Z,1029.64
2016-05-05T02:09:46.085Z,1029.65
2016-05-05T02:10:46.089Z,1029.61
2016-05-05T02:11:46.108Z,1029.65
2016-05-05T02:12:46.129Z,1029.63
2016-05-05T02:13:46.149Z,1029.62
2016-05-05T02:14:46.151Z,1029.63
2016-05-05T02:15:46.187Z,1029.62
2016-05-05T02:16:46.189Z,1029.63
2016-05-05T02:17:46.209Z,1029.62
2016-05-05T02:18:46.227Z,1029.65
2016-05-05T02:19:46.230Z,1029.59
2016-05-05T02:20:46.249Z,1029.61
2016-05-05T02:21:46.267Z,1029.62
2016-05-05T02:23:46.291Z,1029.62
2016-05-05T02:24:46.309Z,1029.62
2016-05-05T02:25:46.312Z,1029.63
2016-05-05T02:26:46.345Z,1029.61
2016-05-05T02:27:46.348Z,1029.62
2016-05-05T02:28:46.367Z,1029.62
2016-05-05T02:29:46.370Z,1029.64
2016-05-05T02:30:46.388Z,1029.62
2016-05-05T02:31:52.671Z,1029.63
2016-05-05T02:32:46.424Z,1029.6
2016-05-05T02:33:46.442Z,1029.58
2016-05-05T02:34:46.445Z,1029.62
2016-05-05T02:35:46.464Z,1029.6
2016-05-05T02:36:46.481Z,1029.61
2016-05-05T02:37:46.484Z,1029.6
2016-05-05T02:38:46.503Z,1029.6
2016-05-05T02:39:46.818Z,1029.58
2016-05-05T02:40:46.540Z,1029.59
2016-05-05T02:41:46.558Z,1029.56
2016-05-05T02:42:46.561Z,1029.55
2016-05-05T02:43:46.578Z,1029.58
2016-05-05T02:44:46.598Z,1029.6
2016-05-05T02:45:46.616Z,1029.56
2016-05-05T02:46:46.618Z,1029.54
2016-05-05T02:47:46.636Z,1029.6
2016-05-05T02:48:59.389Z,1029.6
2016-05-05T02:49:46.657Z,1029.61
2016-05-05T02:50:46.677Z,1029.59
2016-05-05T02:51:46.694Z,1029.62
2016-05-05T02:52:59.432Z,1029.63
2016-05-05T02:53:46.715Z,1029.63
2016-05-05T02:55:05.940Z,1029.65
2016-05-05T02:55:46.752Z,1029.65
2016-05-05T02:56:46.755Z,1029.65
2016-05-05T02:57:46.835Z,1029.64
2016-05-05T02:58:46.791Z,1029.63
2016-05-05T02:59:46.810Z,1029.64
2016-05-05T03:00:46.813Z,1029.61
2016-05-05T03:01:46.831Z,1029.61
2016-05-05T03:02:59.584Z,1029.62
2016-05-05T03:03:46.867Z,1029.63
2016-05-05T03:05:12.545Z,1029.61
2016-05-05T03:05:46.888Z,1029.62
2016-05-05T03:06:46.906Z,1029.64
2016-05-05T03:07:46.925Z,1029.61
2016-05-05T03:08:59.818Z,1029.62
2016-05-05T03:09:48.681Z,1029.63
2016-05-05T03:10:47.042Z,1029.64
2016-05-05T03:12:02.638Z,1029.65
2016-05-05T03:13:15.378Z,1029.65
2016-05-05T03:14:02.659Z,1029.66
2016-05-05T03:15:21.883Z,1029.71
2016-05-05T03:16:02.696Z,1029.68
2016-05-05T03:17:02.699Z,1029.75
2016-05-05T03:18:06.783Z,1029.72
2016-05-05T03:19:06.801Z,1029.72
2016-05-05T03:20:06.866Z,1029.71
2016-05-05T03:21:06.821Z,1029.73
2016-05-05T03:22:21.902Z,1029.69
2016-05-05T03:23:21.905Z,1029.73
2016-05-05T03:24:28.189Z,1029.73
2016-05-05T03:25:21.942Z,1029.71
2016-05-05T03:26:21.960Z,1029.75
2016-05-05T03:27:21.979Z,1029.74
2016-05-05T03:28:21.996Z,1029.73
2016-05-05T03:29:22.000Z,1029.69
2016-05-05T03:30:25.159Z,1029.71
2016-05-05T03:31:25.176Z,1029.72
2016-05-05T03:32:25.804Z,1029.67
2016-05-05T03:33:25.213Z,1029.73
2016-05-05T03:34:37.951Z,1029.73
2016-05-05T03:35:37.969Z,1029.71
2016-05-05T03:36:25.253Z,1029.77
2016-05-05T03:37:25.256Z,1029.75
2016-05-05T03:38:25.274Z,1029.72
2016-05-05T03:40:40.576Z,1029.72
2016-05-05T03:41:40.594Z,1029.72
2016-05-05T03:42:40.816Z,1029.74
2016-05-05T03:43:40.631Z,1029.73
2016-05-05T03:44:40.650Z,1029.69
2016-05-05T03:45:40.652Z,1029.71
2016-05-05T03:46:40.670Z,1029.68
2016-05-05T03:47:40.689Z,1029.71
2016-05-05T03:48:46.973Z,1029.67
2016-05-05T03:50:06.383Z,1029.7
2016-05-05T03:50:53.227Z,1029.68
2016-05-05T03:52:09.436Z,1029.73
2016-05-05T03:53:02.968Z,1029.66
2016-05-05T03:54:15.926Z,1029.68
2016-05-05T03:55:09.476Z,1029.7
2016-05-05T03:55:50.272Z,1029.69
2016-05-05T03:56:50.291Z,1029.71
2016-05-05T03:57:50.310Z,1029.72
2016-05-05T03:58:50.921Z,1029.72
2016-05-05T03:59:50.330Z,1029.73
2016-05-05T04:02:05.429Z,1029.75
2016-05-05T04:03:31.122Z,1029.75
2016-05-05T04:04:14.937Z,1029.76
2016-05-05T04:05:40.628Z,1029.73
2016-05-05T04:06:24.584Z,1029.72
2016-05-05T04:07:27.571Z,1029.77
2016-05-05T04:08:27.636Z,1029.75
2016-05-05T04:09:27.576Z,1029.77
2016-05-05T04:10:33.937Z,1029.75
2016-05-05T04:11:27.519Z,1029.73
2016-05-05T04:12:46.850Z,1029.74
2016-05-05T04:13:27.618Z,1029.75
2016-05-05T04:15:37.186Z,1029.72
2016-05-05T04:17:46.817Z,1029.74
2016-05-05T04:20:01.759Z,1029.8
2016-05-05T04:21:01.761Z,1029.84
2016-05-05T04:22:01.796Z,1029.81
2016-05-05T04:23:01.814Z,1029.8
2016-05-05T04:24:02.644Z,1029.8
2016-05-05T04:25:14.572Z,1029.77
2016-05-05T04:26:01.853Z,1029.72
2016-05-05T04:27:01.856Z,1029.77
2016-05-05T04:28:27.549Z,1029.74
2016-05-05T04:29:11.333Z,1029.77
2016-05-05T04:30:30.554Z,1029.77
2016-05-05T04:31:11.369Z,1029.75
2016-05-05T04:32:11.388Z,1029.8
2016-05-05T04:33:11.999Z,1029.78
2016-05-05T04:34:11.424Z,1029.75
2016-05-05T04:35:11.426Z,1029.78
2016-05-05T04:36:24.180Z,1029.76
2016-05-05T04:37:11.448Z,1029.76
2016-05-05T04:38:30.732Z,1029.79
2016-05-05T04:39:12.157Z,1029.79
2016-05-05T04:40:11.487Z,1029.78
2016-05-05T04:41:11.506Z,1029.75
2016-05-05T04:42:11.524Z,1029.79
2016-05-05T04:43:26.636Z,1029.77
2016-05-05T04:44:26.654Z,1029.76
2016-05-05T04:45:26.657Z,1029.78
2016-05-05T04:46:26.723Z,1029.76
2016-05-05T04:47:26.881Z,1029.8
2016-05-05T04:48:32.961Z,1029.77
2016-05-05T04:49:26.715Z,1029.79
2016-05-05T04:50:39.467Z,1029.78
2016-05-05T04:51:26.752Z,1029.77
2016-05-05T04:52:45.972Z,1029.8
2016-05-05T04:53:30.101Z,1029.82
2016-05-05T04:54:55.775Z,1029.84
2016-05-05T04:56:55.047Z,1029.81
2016-05-05T04:57:55.064Z,1029.82
2016-05-05T05:00:10.338Z,1029.82
2016-05-05T05:01:10.341Z,1029.86
2016-05-05T05:02:10.360Z,1029.88
2016-05-05T05:03:10.362Z,1029.82
2016-05-05T05:04:10.989Z,1029.84
2016-05-05T05:05:10.398Z,1029.82
2016-05-05T05:06:10.418Z,1029.84
2016-05-05T05:07:10.451Z,1029.86
2016-05-05T05:08:10.438Z,1029.85
2016-05-05T05:09:10.456Z,1029.9
2016-05-05T05:10:23.209Z,1029.89
2016-05-05T05:11:16.758Z,1029.92
2016-05-05T05:12:10.527Z,1029.92
2016-05-05T05:13:23.264Z,1029.97
2016-05-05T05:14:10.532Z,1029.97
2016-05-05T05:15:10.567Z,1030.02
2016-05-05T05:17:10.586Z,1029.99
2016-05-05T05:18:10.589Z,1029.99
2016-05-05T05:19:20.248Z,1029.99
2016-05-05T05:20:20.267Z,1029.96
2016-05-05T05:21:32.676Z,1030
2016-05-05T05:22:29.647Z,1030.04
2016-05-05T05:23:42.416Z,1030.01
2016-05-05T05:24:29.700Z,1030.04
2016-05-05T05:25:55.389Z,1030.04
2016-05-05T05:26:42.252Z,1030.06
2016-05-05T05:27:45.410Z,1030.09
2016-05-05T05:28:55.054Z,1030.13
2016-05-05T05:29:55.072Z,1030.08
2016-05-05T05:30:55.200Z,1030.12
2016-05-05T05:31:55.124Z,1030.12
2016-05-05T05:33:04.768Z,1030.08
2016-05-05T05:34:04.802Z,1030.06
2016-05-05T05:35:08.913Z,1030.08
2016-05-05T05:37:24.265Z,1030.11
2016-05-05T05:38:24.299Z,1030.08
2016-05-05T05:39:24.443Z,1030.12
2016-05-05T05:40:28.540Z,1030.13
2016-05-05T05:42:43.607Z,1030.15
2016-05-05T05:43:43.625Z,1030.17
2016-05-05T05:45:58.912Z,1030.21
2016-05-05T05:46:58.931Z,1030.22
2016-05-05T05:47:58.964Z,1030.25
2016-05-05T05:49:11.751Z,1030.18
2016-05-05T05:49:59.017Z,1030.26
2016-05-05T05:51:24.709Z,1030.27
2016-05-05T05:52:11.416Z,1030.28
2016-05-05T05:53:14.605Z,1030.31
2016-05-05T05:54:24.077Z,1030.31
2016-05-05T05:55:49.783Z,1030.32
2016-05-05T05:57:04.879Z,1030.33
2016-05-05T05:58:04.897Z,1030.34
2016-05-05T05:59:04.932Z,1030.3
2016-05-05T06:00:04.966Z,1030.32
2016-05-05T06:01:17.736Z,1030.3
2016-05-05T06:02:05.018Z,1030.32
2016-05-05T06:03:24.241Z,1030.29
2016-05-05T06:04:05.070Z,1030.33
2016-05-05T06:05:30.763Z,1030.35
2016-05-05T06:06:40.188Z,1030.32
2016-05-05T06:07:40.221Z,1030.38
2016-05-05T06:08:52.895Z,1030.35
2016-05-05T06:10:53.105Z,1030.36
2016-05-05T06:11:53.138Z,1030.36
2016-05-05T06:12:59.437Z,1030.32
2016-05-05T06:13:53.190Z,1030.33
2016-05-05T06:15:08.459Z,1030.29
2016-05-05T06:16:08.492Z,1030.3
2016-05-05T06:17:18.123Z,1030.37
2016-05-05T06:18:18.156Z,1030.26
2016-05-05T06:19:18.347Z,1030.25
2016-05-05T06:20:31.022Z,1030.28
2016-05-05T06:21:31.040Z,1030.31
2016-05-05T06:22:37.355Z,1030.32
2016-05-05T06:23:31.102Z,1030.28
2016-05-05T06:24:31.152Z,1030.28
2016-05-05T06:25:43.904Z,1030.31
2016-05-05T06:26:37.470Z,1030.29
2016-05-05T06:27:31.644Z,1030.3
2016-05-05T06:28:31.271Z,1030.32
2016-05-05T06:29:31.306Z,1030.32
2016-05-05T06:30:31.324Z,1030.33
2016-05-05T06:31:31.358Z,1030.33
2016-05-05T06:32:44.127Z,1030.31
2016-05-05T06:33:31.426Z,1030.32
2016-05-05T06:34:50.710Z,1030.31
2016-05-05T06:35:34.540Z,1030.25
2016-05-05T06:37:00.246Z,1030.28
2016-05-05T06:38:15.501Z,1030.25
2016-05-05T06:39:28.426Z,1030.25
2016-05-05T06:40:15.570Z,1030.29
2016-05-05T06:41:34.806Z,1030.28
2016-05-05T06:42:15.638Z,1030.28
2016-05-05T06:43:15.672Z,1030.27
2016-05-05T06:44:15.706Z,1030.28
2016-05-05T06:45:28.474Z,1030.25
2016-05-05T06:46:15.773Z,1030.28
2016-05-05T06:47:15.808Z,1030.31
2016-05-05T06:48:15.841Z,1030.31
2016-05-05T06:49:41.547Z,1030.3
2016-05-05T06:50:26.816Z,1030.29
2016-05-05T06:51:52.521Z,1030.31
2016-05-05T06:52:39.602Z,1030.29
2016-05-05T06:53:26.917Z,1030.3
2016-05-05T06:54:26.952Z,1030.3
2016-05-05T06:56:36.691Z,1030.26
2016-05-05T06:57:36.710Z,1030.28
2016-05-05T06:58:36.743Z,1030.25
2016-05-05T06:59:36.793Z,1030.25
2016-05-05T07:00:49.545Z,1030.22
2016-05-05T07:01:36.846Z,1030.26
2016-05-05T07:02:36.879Z,1030.21
2016-05-05T07:03:37.523Z,1030.22
2016-05-05T07:04:36.963Z,1030.23
2016-05-05T07:05:36.982Z,1030.23
2016-05-05T07:07:02.687Z,1030.24
2016-05-05T07:08:12.924Z,1030.23
2016-05-05T07:08:47.395Z,1030.27
2016-05-05T07:10:56.932Z,1030.28
2016-05-05T07:13:07.234Z,1030.23
2016-05-05T07:14:07.284Z,1030.22
2016-05-05T07:15:07.303Z,1030.23
2016-05-05T07:16:07.351Z,1030.2
2016-05-05T07:17:07.385Z,1030.21
2016-05-05T07:18:07.404Z,1030.24
2016-05-05T07:19:07.438Z,1030.26
2016-05-05T07:20:07.487Z,1030.23
2016-05-05T07:21:20.258Z,1030.24
2016-05-05T07:22:07.555Z,1030.25
2016-05-05T07:23:33.263Z,1030.27
2016-05-05T07:24:17.204Z,1030.29
2016-05-05T07:25:17.097Z,1030.3
2016-05-05T07:26:21.678Z,1030.28
2016-05-05T07:27:21.712Z,1030.28
2016-05-05T07:28:21.746Z,1030.28
2016-05-05T07:29:21.780Z,1030.28
2016-05-05T07:30:21.814Z,1030.19
2016-05-05T07:31:21.848Z,1030.25
2016-05-05T07:32:21.882Z,1030.23
2016-05-05T07:33:21.932Z,1030.24
2016-05-05T07:34:34.699Z,1030.22
2016-05-05T07:35:21.999Z,1030.23
2016-05-05T07:36:47.690Z,1030.18
2016-05-05T07:37:31.707Z,1030.21
2016-05-05T07:38:31.742Z,1030.19
2016-05-05T07:39:31.775Z,1030.17
2016-05-05T07:40:31.810Z,1030.22
2016-05-05T07:41:31.859Z,1030.16
2016-05-05T07:42:31.877Z,1030.16
2016-05-05T07:43:31.912Z,1030.25
2016-05-05T07:44:31.961Z,1030.18
2016-05-05T07:45:31.995Z,1030.22
2016-05-05T07:46:32.028Z,1030.27
2016-05-05T07:47:32.062Z,1030.26
2016-05-05T07:48:32.097Z,1030.17
2016-05-05T07:49:32.114Z,1030.24
2016-05-05T07:50:32.150Z,1030.25
2016-05-05T07:51:38.464Z,1030.17
2016-05-05T07:52:32.217Z,1030.22
2016-05-05T07:53:51.469Z,1030.16
2016-05-05T07:54:38.550Z,1030.17
2016-05-05T07:55:32.318Z,1030.14
2016-05-05T07:56:32.352Z,1030.11
2016-05-05T07:57:38.668Z,1030.05
2016-05-05T07:59:47.674Z,1029.97
2016-05-05T08:00:47.707Z,1029.92
2016-05-05T08:01:47.741Z,1029.9
2016-05-05T08:03:02.993Z,1029.81
2016-05-05T08:04:03.012Z,1029.81
2016-05-05T08:05:03.046Z,1029.77
2016-05-05T08:06:03.690Z,1029.73
2016-05-05T08:07:22.320Z,1029.73
2016-05-05T08:08:06.398Z,1029.69
2016-05-05T08:09:06.447Z,1029.64
2016-05-05T08:10:09.638Z,1029.64
2016-05-05T08:11:09.671Z,1029.65
2016-05-05T08:12:09.706Z,1029.69
2016-05-05T08:13:09.739Z,1029.64
2016-05-05T08:14:09.742Z,1029.62
2016-05-05T08:15:22.513Z,1029.63
2016-05-05T08:16:09.810Z,1029.58
2016-05-05T08:17:09.844Z,1029.56
2016-05-05T08:18:10.471Z,1029.58
2016-05-05T08:19:09.896Z,1029.56
2016-05-05T08:20:29.136Z,1029.57
2016-05-05T08:21:25.842Z,1029.56
2016-05-05T08:22:38.611Z,1029.53
2016-05-05T08:23:25.909Z,1029.52
2016-05-05T08:24:25.928Z,1029.56
2016-05-05T08:25:25.946Z,1029.54
2016-05-05T08:26:38.714Z,1029.53
2016-05-05T08:28:44.283Z,1029.56
2016-05-05T08:29:44.316Z,1029.55
2016-05-05T08:30:57.069Z,1029.51
2016-05-05T08:31:44.572Z,1029.52
2016-05-05T08:33:03.590Z,1029.55
2016-05-05T08:33:44.421Z,1029.55
2016-05-05T08:34:44.455Z,1029.49
2016-05-05T08:35:50.738Z,1029.45
2016-05-05T08:36:44.507Z,1029.45
2016-05-05T08:37:44.526Z,1029.44
2016-05-05T08:38:44.528Z,1029.45
2016-05-05T08:39:44.562Z,1029.41
2016-05-05T08:40:44.579Z,1029.41
2016-05-05T08:41:44.614Z,1029.4
2016-05-05T08:42:44.648Z,1029.33
2016-05-05T08:43:44.667Z,1029.36
2016-05-05T08:44:50.950Z,1029.32
2016-05-05T08:45:44.704Z,1029.29
2016-05-05T08:47:03.940Z,1029.29
2016-05-05T08:47:47.927Z,1029.23
2016-05-05T08:49:07.148Z,1029.29
2016-05-05T08:50:07.167Z,1029.32
2016-05-05T08:50:47.982Z,1029.29
2016-05-05T08:51:48.016Z,1029.27
2016-05-05T08:52:48.034Z,1029.25
2016-05-05T08:53:48.053Z,1029.24
2016-05-05T08:55:13.758Z,1029.22
2016-05-05T08:55:57.558Z,1029.2
2016-05-05T08:56:57.592Z,1029.19
2016-05-05T08:59:12.863Z,1029.21
2016-05-05T09:00:12.880Z,1029.24
2016-05-05T09:01:12.931Z,1029.18
2016-05-05T09:02:12.950Z,1029.15
2016-05-05T09:03:25.705Z,1029.19
2016-05-05T09:04:13.033Z,1029.19
2016-05-05T09:05:32.210Z,1029.15
2016-05-05T09:06:25.774Z,1029.18
2016-05-05T09:07:38.746Z,1029.14
2016-05-05T09:08:32.296Z,1029.22
2016-05-05T09:10:13.127Z,1029.13
2016-05-05T09:11:13.145Z,1029.16
2016-05-05T09:12:13.179Z,1029.14
2016-05-05T09:13:13.198Z,1029.23
2016-05-05T09:14:25.953Z,1029.21
2016-05-05T09:15:26.081Z,1029.15
2016-05-05T09:16:13.268Z,1029.14
2016-05-05T09:17:38.962Z,1029.11
2016-05-05T09:19:13.338Z,1029.11
2016-05-05T09:20:13.357Z,1029.12
2016-05-05T09:21:13.375Z,1029.08
2016-05-05T09:22:13.394Z,1029.09
2016-05-05T09:23:22.930Z,1029.11
2016-05-05T09:24:23.183Z,1029.09
2016-05-05T09:25:24.372Z,1029.1
2016-05-05T09:26:24.392Z,1029.1
2016-05-05T09:27:23.003Z,1029.11
2016-05-05T09:28:23.022Z,1029.1
2016-05-05T09:29:23.041Z,1029.1
2016-05-05T09:30:23.076Z,1029.1
2016-05-05T09:31:35.817Z,1029.08
2016-05-05T09:32:35.839Z,1029.09
2016-05-05T09:33:48.794Z,1029.1
2016-05-05T09:34:32.624Z,1029.1
2016-05-05T09:35:32.658Z,1029.07
2016-05-05T09:36:32.692Z,1029.09
2016-05-05T09:39:00.524Z,1029
2016-05-05T09:40:00.841Z,1029.03
2016-05-05T09:41:00.577Z,1028.96
2016-05-05T09:42:00.596Z,1029.06
2016-05-05T09:43:00.609Z,1028.96
2016-05-05T09:44:00.830Z,1028.96
2016-05-05T09:45:13.395Z,1028.94
2016-05-05T09:46:00.678Z,1029.01
2016-05-05T09:47:00.698Z,1028.94
2016-05-05T09:48:07.012Z,1028.91
2016-05-05T09:49:00.750Z,1028.9
2016-05-05T09:50:00.768Z,1028.88
2016-05-05T09:51:00.786Z,1028.93
2016-05-05T09:52:00.820Z,1028.9
2016-05-05T09:53:07.214Z,1028.83
2016-05-05T09:54:00.872Z,1028.85
2016-05-05T09:55:00.875Z,1028.86
2016-05-05T09:56:00.909Z,1028.85
2016-05-05T09:57:00.927Z,1028.75
2016-05-05T09:58:00.946Z,1028.74
2016-05-05T09:59:00.964Z,1028.75
2016-05-05T10:00:02.404Z,1028.73
2016-05-05T10:01:01.016Z,1028.71
2016-05-05T10:02:01.050Z,1028.73
2016-05-05T10:03:13.802Z,1028.7
2016-05-05T10:04:01.243Z,1028.7
2016-05-05T10:05:01.120Z,1028.7
2016-05-05T10:06:01.123Z,1028.71
2016-05-05T10:07:20.345Z,1028.76
2016-05-05T10:08:01.176Z,1028.67
2016-05-05T10:09:26.868Z,1028.66
2016-05-05T10:10:02.446Z,1028.63
2016-05-05T10:11:01.246Z,1028.61
2016-05-05T10:12:01.264Z,1028.66
2016-05-05T10:13:14.033Z,1028.63
2016-05-05T10:14:01.301Z,1028.65
2016-05-05T10:15:01.334Z,1028.67
2016-05-05T10:16:01.354Z,1028.63
2016-05-05T10:17:01.387Z,1028.59
2016-05-05T10:18:10.936Z,1028.54
2016-05-05T10:19:10.971Z,1028.55
2016-05-05T10:20:11.426Z,1028.48
2016-05-05T10:21:11.007Z,1028.46
2016-05-05T10:22:11.042Z,1028.51
2016-05-05T10:23:30.266Z,1028.45
2016-05-05T10:24:11.078Z,1028.46
2016-05-05T10:26:20.567Z,1028.52
2016-05-05T10:28:20.620Z,1028.51
2016-05-05T10:29:20.654Z,1028.48
2016-05-05T10:30:35.924Z,1028.49
2016-05-05T10:31:35.943Z,1028.48
2016-05-05T10:32:35.978Z,1028.4
2016-05-05T10:33:48.730Z,1028.39
2016-05-05T10:34:36.014Z,1028.35
2016-05-05T10:35:55.235Z,1028.35
2016-05-05T10:36:36.051Z,1028.34
2016-05-05T10:38:45.712Z,1028.28
2016-05-05T10:39:45.715Z,1028.27
2016-05-05T10:40:45.748Z,1028.28
2016-05-05T10:41:58.501Z,1028.27
2016-05-05T10:42:45.785Z,1028.25
2016-05-05T10:43:45.804Z,1028.23
2016-05-05T10:44:49.040Z,1028.19
2016-05-05T10:45:49.075Z,1028.22
2016-05-05T10:46:49.109Z,1028.2
2016-05-05T10:47:49.112Z,1028.18
2016-05-05T10:48:49.145Z,1028.22
2016-05-05T10:49:49.164Z,1028.18
2016-05-05T10:50:52.150Z,1028.17
2016-05-05T10:51:52.169Z,1028.18
2016-05-05T10:53:04.937Z,1028.18
2016-05-05T10:54:04.955Z,1028.16
2016-05-05T10:54:52.255Z,1028.17
2016-05-05T10:56:05.008Z,1028.17
2016-05-05T10:56:52.839Z,1028.16
2016-05-05T10:57:52.325Z,1028.13
2016-05-05T10:58:52.970Z,1028.08
2016-05-05T11:00:08.250Z,1028.15
2016-05-05T11:01:08.327Z,1028.03
2016-05-05T11:02:08.390Z,1028.05
2016-05-05T11:03:24.212Z,1028.06
2016-05-05T11:05:28.030Z,1028
2016-05-05T11:06:28.080Z,1027.95
2016-05-05T11:07:28.114Z,1027.98
2016-05-05T11:08:28.142Z,1027.96
2016-05-05T11:09:28.493Z,1027.98
2016-05-05T11:10:28.205Z,1027.94
2016-05-05T11:11:28.228Z,1027.94
2016-05-05T11:12:41.002Z,1027.98
2016-05-05T11:13:53.944Z,1027.92
2016-05-05T11:14:38.027Z,1027.96
2016-05-05T11:15:38.047Z,1027.94
2016-05-05T11:16:38.068Z,1027.88
2016-05-05T11:17:47.728Z,1027.9
2016-05-05T11:19:13.436Z,1027.9
2016-05-05T11:20:00.517Z,1027.9
2016-05-05T11:20:47.817Z,1027.86
2016-05-05T11:21:47.821Z,1027.85
2016-05-05T11:24:03.105Z,1027.79
2016-05-05T11:25:03.124Z,1027.82
2016-05-05T11:26:03.158Z,1027.76
2016-05-05T11:27:15.911Z,1027.74
2016-05-05T11:28:03.211Z,1027.74
2016-05-05T11:29:03.214Z,1027.69
2016-05-05T11:30:03.248Z,1027.73
2016-05-05T11:31:03.282Z,1027.77
2016-05-05T11:32:03.301Z,1027.72
2016-05-05T11:33:13.101Z,1027.76
2016-05-05T11:34:13.119Z,1027.77
2016-05-05T11:35:22.621Z,1027.76
2016-05-05T11:36:22.639Z,1027.72
2016-05-05T11:37:22.674Z,1027.68
2016-05-05T11:38:22.676Z,1027.65
2016-05-05T11:39:23.741Z,1027.7
2016-05-05T11:40:22.730Z,1027.66
2016-05-05T11:41:22.747Z,1027.61
2016-05-05T11:42:22.797Z,1027.67
2016-05-05T11:43:35.536Z,1027.62
2016-05-05T11:44:22.818Z,1027.63
2016-05-05T11:45:48.527Z,1027.56
2016-05-05T11:46:32.357Z,1027.55
2016-05-05T11:47:32.360Z,1027.56
2016-05-05T11:48:32.378Z,1027.53
2016-05-05T11:49:51.615Z,1027.53
2016-05-05T11:50:32.430Z,1027.61
2016-05-05T11:51:58.120Z,1027.58
2016-05-05T11:52:32.467Z,1027.54
2016-05-05T11:53:32.501Z,1027.52
2016-05-05T11:54:43.207Z,1027.53
2016-05-05T11:55:43.226Z,1027.48
2016-05-05T11:56:43.290Z,1027.44
2016-05-05T11:57:55.996Z,1027.47
2016-05-05T11:58:43.295Z,1027.46
2016-05-05T11:59:43.329Z,1027.46
2016-05-05T12:00:43.331Z,1027.36
2016-05-05T12:01:43.350Z,1027.41
2016-05-05T12:02:43.384Z,1027.42
2016-05-05T12:03:49.669Z,1027.44
2016-05-05T12:04:56.172Z,1027.34
2016-05-05T12:05:43.439Z,1027.33
2016-05-05T12:06:43.489Z,1027.33
2016-05-05T12:07:43.554Z,1027.3
2016-05-05T12:08:56.260Z,1027.29
2016-05-05T12:09:43.544Z,1027.32
2016-05-05T12:10:43.563Z,1027.3
2016-05-05T12:11:43.596Z,1027.32
2016-05-05T12:12:45.021Z,1027.33
2016-05-05T12:13:45.054Z,1027.31
2016-05-05T12:14:43.651Z,1027.38
2016-05-05T12:16:09.356Z,1027.3
2016-05-05T12:16:43.704Z,1027.29
2016-05-05T12:17:43.722Z,1027.27
2016-05-05T12:18:43.755Z,1027.21
2016-05-05T12:19:43.774Z,1027.19
2016-05-05T12:20:43.854Z,1027.24
2016-05-05T12:21:43.826Z,1027.23
2016-05-05T12:23:03.047Z,1027.25
2016-05-05T12:23:44.487Z,1027.22
2016-05-05T12:24:44.116Z,1027.18
2016-05-05T12:26:03.149Z,1027.14
2016-05-05T12:26:43.934Z,1027.13
2016-05-05T12:27:43.967Z,1027.19
2016-05-05T12:28:43.986Z,1027.11
2016-05-05T12:29:56.800Z,1027.01
2016-05-05T12:30:50.288Z,1027.06
2016-05-05T12:32:09.775Z,1027.01
2016-05-05T12:32:44.089Z,1027.04
2016-05-05T12:33:44.108Z,1027
2016-05-05T12:35:05.595Z,1026.97
2016-05-05T12:35:59.347Z,1026.93
2016-05-05T12:36:59.366Z,1026.96
2016-05-05T12:37:59.400Z,1026.94
2016-05-05T12:38:59.419Z,1026.92
2016-05-05T12:39:59.452Z,1026.89
2016-05-05T12:40:59.471Z,1026.91
2016-05-05T12:42:18.692Z,1026.96
2016-05-05T12:43:02.663Z,1027.01
2016-05-05T12:44:28.354Z,1026.94
2016-05-05T12:45:15.185Z,1026.93
2016-05-05T12:46:12.157Z,1026.89
2016-05-05T12:47:12.190Z,1026.86
2016-05-05T12:48:37.883Z,1026.86
2016-05-05T12:49:12.836Z,1026.84
2016-05-05T12:50:12.260Z,1026.83
2016-05-05T12:51:13.701Z,1026.83
2016-05-05T12:52:25.047Z,1026.8
2016-05-05T12:53:25.065Z,1026.82